Harristown, Illinois
Current Conditions -  °F | °C
As of 12:54 AM on Sunday 23 Nov 2014 (Local Time) from KDEC Reporting Station
Scattered Clouds Scattered Clouds  
Wind Chill: 50°   Ceiling: Unl
Heat Index: 50°   Visibility: 10mi
Dew Point: 45°   Wind: 10mph
Humidity: 83%   Direction: 180°S
Pressure: 29.85"   Gusts: NA
Location:  39.85°N, 89.08°W
Report Text: KDEC 230654Z 18009KT 10SM SCT070 10/07 A2985 RMK AO2 SLP109 T01000072
Loading
Personal Weather Stations






























Interactive Weather Map New forecast layout! Learn more

10-Day Weather Forecast

Advertisements
Track Severe Weather on mobile